sensor_id;sensor_type;location;lat;lon;timestamp;temperature;humidity
13998;DHT22;7074;51.508;7.018;2024-03-07T00:00:59;7.40;99.90
13998;DHT22;7074;51.508;7.018;2024-03-07T00:03:26;7.30;99.90
13998;DHT22;7074;51.508;7.018;2024-03-07T00:05:55;7.30;99.90
13998;DHT22;7074;51.508;7.018;2024-03-07T00:08:22;7.30;99.90
13998;DHT22;7074;51.508;7.018;2024-03-07T00:10:49;7.30;99.90
13998;DHT22;7074;51.508;7.018;2024-03-07T00:13:17;7.30;99.90
13998;DHT22;7074;51.508;7.018;2024-03-07T00:15:44;7.30;99.90
13998;DHT22;7074;51.508;7.018;2024-03-07T00:18:14;7.20;99.90
13998;DHT22;7074;51.508;7.018;2024-03-07T00:20:47;7.30;99.90
13998;DHT22;7074;51.508;7.018;2024-03-07T00:23:15;7.10;99.90
13998;DHT22;7074;51.508;7.018;2024-03-07T00:25:43;7.10;99.90
13998;DHT22;7074;51.508;7.018;2024-03-07T00:28:10;7.10;99.90
13998;DHT22;7074;51.508;7.018;2024-03-07T00:30:37;7.10;99.90
13998;DHT22;7074;51.508;7.018;2024-03-07T00:33:04;7.00;99.90
13998;DHT22;7074;51.508;7.018;2024-03-07T00:35:32;7.00;99.90
13998;DHT22;7074;51.508;7.018;2024-03-07T00:37:59;7.00;99.90
13998;DHT22;7074;51.508;7.018;2024-03-07T00:40:27;6.90;99.90
13998;DHT22;7074;51.508;7.018;2024-03-07T00:42:54;6.90;99.90
13998;DHT22;7074;51.508;7.018;2024-03-07T00:45:22;7.00;99.90
13998;DHT22;7074;51.508;7.018;2024-03-07T00:47:49;7.00;99.90
13998;DHT22;7074;51.508;7.018;2024-03-07T00:50:16;6.90;99.90
13998;DHT22;7074;51.508;7.018;2024-03-07T00:52:43;6.90;99.90
13998;DHT22;7074;51.508;7.018;2024-03-07T00:55:11;6.90;99.90
13998;DHT22;7074;51.508;7.018;2024-03-07T00:57:40;6.90;99.90
13998;DHT22;7074;51.508;7.018;2024-03-07T01:00:08;6.90;99.90
13998;DHT22;7074;51.508;7.018;2024-03-07T01:02:39;6.90;99.90
13998;DHT22;7074;51.508;7.018;2024-03-07T01:05:09;6.80;99.90
13998;DHT22;7074;51.508;7.018;2024-03-07T01:07:39;6.70;99.90
13998;DHT22;7074;51.508;7.018;2024-03-07T01:10:07;6.70;99.90
13998;DHT22;7074;51.508;7.018;2024-03-07T01:12:35;6.50;99.90
13998;DHT22;7074;51.508;7.018;2024-03-07T01:15:04;6.50;99.90
13998;DHT22;7074;51.508;7.018;2024-03-07T01:17:32;6.50;99.90
13998;DHT22;7074;51.508;7.018;2024-03-07T01:19:59;6.50;99.90
13998;DHT22;7074;51.508;7.018;2024-03-07T01:22:28;6.50;99.90
13998;DHT22;7074;51.508;7.018;2024-03-07T01:24:56;6.40;99.90
13998;DHT22;7074;51.508;7.018;2024-03-07T01:27:23;6.40;99.90
13998;DHT22;7074;51.508;7.018;2024-03-07T01:29:51;6.30;99.90
13998;DHT22;7074;51.508;7.018;2024-03-07T01:32:21;6.20;99.90
13998;DHT22;7074;51.508;7.018;2024-03-07T01:34:48;6.20;99.90
13998;DHT22;7074;51.508;7.018;2024-03-07T01:37:15;6.20;99.90
13998;DHT22;7074;51.508;7.018;2024-03-07T01:39:42;6.20;99.90
13998;DHT22;7074;51.508;7.018;2024-03-07T01:42:09;6.30;99.90
13998;DHT22;7074;51.508;7.018;2024-03-07T01:44:36;6.20;99.90
13998;DHT22;7074;51.508;7.018;2024-03-07T01:47:06;6.20;99.90
13998;DHT22;7074;51.508;7.018;2024-03-07T01:49:35;6.20;99.90
13998;DHT22;7074;51.508;7.018;2024-03-07T01:52:04;6.20;99.90
13998;DHT22;7074;51.508;7.018;2024-03-07T01:54:31;6.20;99.90
13998;DHT22;7074;51.508;7.018;2024-03-07T01:56:59;6.10;99.90
13998;DHT22;7074;51.508;7.018;2024-03-07T01:59:27;6.10;99.90
13998;DHT22;7074;51.508;7.018;2024-03-07T02:01:56;6.10;99.90
13998;DHT22;7074;51.508;7.018;2024-03-07T02:04:23;6.10;99.90
13998;DHT22;7074;51.508;7.018;2024-03-07T02:06:52;6.10;99.90
13998;DHT22;7074;51.508;7.018;2024-03-07T02:09:21;6.10;99.90
13998;DHT22;7074;51.508;7.018;2024-03-07T02:11:48;6.10;99.90
13998;DHT22;7074;51.508;7.018;2024-03-07T02:14:15;6.00;99.90
13998;DHT22;7074;51.508;7.018;2024-03-07T02:16:43;6.00;99.90
13998;DHT22;7074;51.508;7.018;2024-03-07T02:19:13;5.90;99.90
13998;DHT22;7074;51.508;7.018;2024-03-07T02:21:42;5.90;99.90
13998;DHT22;7074;51.508;7.018;2024-03-07T02:24:09;5.90;99.90
13998;DHT22;7074;51.508;7.018;2024-03-07T02:26:36;5.90;99.90
13998;DHT22;7074;51.508;7.018;2024-03-07T02:29:05;5.90;99.90
13998;DHT22;7074;51.508;7.018;2024-03-07T02:31:32;5.90;99.90
13998;DHT22;7074;51.508;7.018;2024-03-07T02:34:02;5.80;99.90
13998;DHT22;7074;51.508;7.018;2024-03-07T02:36:30;5.80;99.90
13998;DHT22;7074;51.508;7.018;2024-03-07T02:38:59;5.80;99.90
13998;DHT22;7074;51.508;7.018;2024-03-07T02:41:27;5.80;99.90
13998;DHT22;7074;51.508;7.018;2024-03-07T02:43:54;5.70;99.90
13998;DHT22;7074;51.508;7.018;2024-03-07T02:46:21;5.60;99.90
13998;DHT22;7074;51.508;7.018;2024-03-07T02:48:48;5.50;99.90
13998;DHT22;7074;51.508;7.018;2024-03-07T02:51:15;5.50;99.90
13998;DHT22;7074;51.508;7.018;2024-03-07T02:53:42;5.50;99.90
13998;DHT22;7074;51.508;7.018;2024-03-07T02:56:11;5.50;99.90
13998;DHT22;7074;51.508;7.018;2024-03-07T02:58:38;5.50;99.90
13998;DHT22;7074;51.508;7.018;2024-03-07T03:01:09;5.50;99.90
13998;DHT22;7074;51.508;7.018;2024-03-07T03:03:36;5.40;99.90
13998;DHT22;7074;51.508;7.018;2024-03-07T03:06:04;5.40;99.90
13998;DHT22;7074;51.508;7.018;2024-03-07T03:08:31;5.40;99.90
13998;DHT22;7074;51.508;7.018;2024-03-07T03:11:00;5.30;99.90
13998;DHT22;7074;51.508;7.018;2024-03-07T03:13:29;5.40;99.90
13998;DHT22;7074;51.508;7.018;2024-03-07T03:15:56;5.30;99.90
13998;DHT22;7074;51.508;7.018;2024-03-07T03:18:23;5.30;99.90
13998;DHT22;7074;51.508;7.018;2024-03-07T03:20:51;5.30;99.90
13998;DHT22;7074;51.508;7.018;2024-03-07T03:23:18;5.30;99.90
13998;DHT22;7074;51.508;7.018;2024-03-07T03:25:46;5.20;99.90
13998;DHT22;7074;51.508;7.018;2024-03-07T03:28:16;5.20;99.90
13998;DHT22;7074;51.508;7.018;2024-03-07T03:30:48;5.10;99.90
13998;DHT22;7074;51.508;7.018;2024-03-07T03:33:16;5.10;99.90
13998;DHT22;7074;51.508;7.018;2024-03-07T03:35:44;5.10;99.90
13998;DHT22;7074;51.508;7.018;2024-03-07T03:38:11;5.00;99.90
13998;DHT22;7074;51.508;7.018;2024-03-07T03:40:38;5.00;99.90
13998;DHT22;7074;51.508;7.018;2024-03-07T03:43:05;4.90;99.90
13998;DHT22;7074;51.508;7.018;2024-03-07T03:45:33;4.80;99.90
13998;DHT22;7074;51.508;7.018;2024-03-07T03:48:02;4.90;99.90
13998;DHT22;7074;51.508;7.018;2024-03-07T03:50:30;4.90;99.90
13998;DHT22;7074;51.508;7.018;2024-03-07T03:52:57;5.00;99.90
13998;DHT22;7074;51.508;7.018;2024-03-07T03:55:24;5.00;99.90
13998;DHT22;7074;51.508;7.018;2024-03-07T03:57:51;4.90;99.90
13998;DHT22;7074;51.508;7.018;2024-03-07T04:00:19;4.90;99.90
13998;DHT22;7074;51.508;7.018;2024-03-07T04:02:48;4.90;99.90
13998;DHT22;7074;51.508;7.018;2024-03-07T04:05:18;4.90;99.90
13998;DHT22;7074;51.508;7.018;2024-03-07T04:07:47;4.90;99.90
13998;DHT22;7074;51.508;7.018;2024-03-07T04:10:16;4.80;99.90
13998;DHT22;7074;51.508;7.018;2024-03-07T04:12:43;4.80;99.90
13998;DHT22;7074;51.508;7.018;2024-03-07T04:15:12;4.80;99.90
13998;DHT22;7074;51.508;7.018;2024-03-07T04:17:42;4.70;99.90
13998;DHT22;7074;51.508;7.018;2024-03-07T04:20:11;4.60;99.90
13998;DHT22;7074;51.508;7.018;2024-03-07T04:22:40;4.70;99.90
13998;DHT22;7074;51.508;7.018;2024-03-07T04:25:08;4.70;99.90
13998;DHT22;7074;51.508;7.018;2024-03-07T04:27:36;4.70;99.90
13998;DHT22;7074;51.508;7.018;2024-03-07T04:30:10;4.70;99.90
13998;DHT22;7074;51.508;7.018;2024-03-07T04:32:37;4.70;99.90
13998;DHT22;7074;51.508;7.018;2024-03-07T04:35:05;4.70;99.90
13998;DHT22;7074;51.508;7.018;2024-03-07T04:37:36;4.60;99.90
13998;DHT22;7074;51.508;7.018;2024-03-07T04:40:06;4.50;99.90
13998;DHT22;7074;51.508;7.018;2024-03-07T04:42:41;4.50;99.90
13998;DHT22;7074;51.508;7.018;2024-03-07T04:45:10;4.50;99.90
13998;DHT22;7074;51.508;7.018;2024-03-07T04:47:39;4.50;99.90
13998;DHT22;7074;51.508;7.018;2024-03-07T04:50:07;4.50;99.90
13998;DHT22;7074;51.508;7.018;2024-03-07T04:52:36;4.50;99.90
13998;DHT22;7074;51.508;7.018;2024-03-07T04:55:07;4.50;99.90
13998;DHT22;7074;51.508;7.018;2024-03-07T04:57:36;4.40;99.90
13998;DHT22;7074;51.508;7.018;2024-03-07T05:00:05;4.40;99.90
13998;DHT22;7074;51.508;7.018;2024-03-07T05:02:33;4.50;99.90
13998;DHT22;7074;51.508;7.018;2024-03-07T05:05:00;4.50;99.90
13998;DHT22;7074;51.508;7.018;2024-03-07T05:07:27;4.50;99.90
13998;DHT22;7074;51.508;7.018;2024-03-07T05:09:55;4.40;99.90
13998;DHT22;7074;51.508;7.018;2024-03-07T05:12:24;4.40;99.90
13998;DHT22;7074;51.508;7.018;2024-03-07T05:14:51;4.30;99.90
13998;DHT22;7074;51.508;7.018;2024-03-07T05:17:19;4.40;99.90
13998;DHT22;7074;51.508;7.018;2024-03-07T05:19:48;4.40;99.90
13998;DHT22;7074;51.508;7.018;2024-03-07T05:22:15;4.40;99.90
13998;DHT22;7074;51.508;7.018;2024-03-07T05:24:44;4.30;99.90
13998;DHT22;7074;51.508;7.018;2024-03-07T05:27:10;4.30;99.90
13998;DHT22;7074;51.508;7.018;2024-03-07T05:29:39;4.30;99.90
13998;DHT22;7074;51.508;7.018;2024-03-07T05:32:21;4.20;99.90
13998;DHT22;7074;51.508;7.018;2024-03-07T05:34:48;4.30;99.90
13998;DHT22;7074;51.508;7.018;2024-03-07T05:37:16;4.20;99.90
13998;DHT22;7074;51.508;7.018;2024-03-07T05:39:43;4.20;99.90
13998;DHT22;7074;51.508;7.018;2024-03-07T05:42:11;4.30;99.90
13998;DHT22;7074;51.508;7.018;2024-03-07T05:44:42;4.30;99.90
13998;DHT22;7074;51.508;7.018;2024-03-07T05:47:09;4.30;99.90
13998;DHT22;7074;51.508;7.018;2024-03-07T05:49:39;4.30;99.90
13998;DHT22;7074;51.508;7.018;2024-03-07T05:52:06;4.20;99.90
13998;DHT22;7074;51.508;7.018;2024-03-07T05:54:34;4.20;99.90
13998;DHT22;7074;51.508;7.018;2024-03-07T05:57:01;4.20;99.90
13998;DHT22;7074;51.508;7.018;2024-03-07T05:59:29;4.20;99.90
13998;DHT22;7074;51.508;7.018;2024-03-07T06:01:59;4.20;99.90
13998;DHT22;7074;51.508;7.018;2024-03-07T06:04:26;4.30;99.90
13998;DHT22;7074;51.508;7.018;2024-03-07T06:06:53;4.30;99.90
13998;DHT22;7074;51.508;7.018;2024-03-07T06:09:21;4.30;99.90
13998;DHT22;7074;51.508;7.018;2024-03-07T06:11:48;4.30;99.90
13998;DHT22;7074;51.508;7.018;2024-03-07T06:14:16;4.30;99.90
13998;DHT22;7074;51.508;7.018;2024-03-07T06:16:43;4.40;99.90
13998;DHT22;7074;51.508;7.018;2024-03-07T06:19:21;4.40;99.90
13998;DHT22;7074;51.508;7.018;2024-03-07T06:21:51;4.40;99.90
13998;DHT22;7074;51.508;7.018;2024-03-07T06:24:19;4.40;99.90
13998;DHT22;7074;51.508;7.018;2024-03-07T06:26:48;4.50;99.90
13998;DHT22;7074;51.508;7.018;2024-03-07T06:29:25;4.50;99.90
13998;DHT22;7074;51.508;7.018;2024-03-07T06:31:53;4.60;99.90
13998;DHT22;7074;51.508;7.018;2024-03-07T06:34:22;4.60;99.90
13998;DHT22;7074;51.508;7.018;2024-03-07T06:36:52;4.70;99.90
13998;DHT22;7074;51.508;7.018;2024-03-07T06:39:21;4.80;99.90
13998;DHT22;7074;51.508;7.018;2024-03-07T06:41:49;4.80;99.90
13998;DHT22;7074;51.508;7.018;2024-03-07T06:44:18;4.90;99.90
13998;DHT22;7074;51.508;7.018;2024-03-07T06:46:51;4.90;99.90
13998;DHT22;7074;51.508;7.018;2024-03-07T06:49:18;4.90;99.90
13998;DHT22;7074;51.508;7.018;2024-03-07T06:51:48;4.90;99.90
13998;DHT22;7074;51.508;7.018;2024-03-07T06:54:16;5.00;99.90
13998;DHT22;7074;51.508;7.018;2024-03-07T06:56:43;5.10;99.90
13998;DHT22;7074;51.508;7.018;2024-03-07T06:59:13;5.10;99.90
13998;DHT22;7074;51.508;7.018;2024-03-07T07:01:41;5.10;99.90
13998;DHT22;7074;51.508;7.018;2024-03-07T07:04:08;5.10;99.90
13998;DHT22;7074;51.508;7.018;2024-03-07T07:06:38;5.20;99.90
13998;DHT22;7074;51.508;7.018;2024-03-07T07:09:10;5.30;99.90
13998;DHT22;7074;51.508;7.018;2024-03-07T07:11:37;5.20;99.90
13998;DHT22;7074;51.508;7.018;2024-03-07T07:14:04;5.30;99.90
13998;DHT22;7074;51.508;7.018;2024-03-07T07:16:32;5.30;99.90
13998;DHT22;7074;51.508;7.018;2024-03-07T07:19:01;5.30;99.90
13998;DHT22;7074;51.508;7.018;2024-03-07T07:21:29;5.40;99.90
13998;DHT22;7074;51.508;7.018;2024-03-07T07:23:56;5.30;99.90
13998;DHT22;7074;51.508;7.018;2024-03-07T07:26:25;5.30;99.90
13998;DHT22;7074;51.508;7.018;2024-03-07T07:28:53;5.40;99.90
13998;DHT22;7074;51.508;7.018;2024-03-07T07:31:21;5.50;99.90
13998;DHT22;7074;51.508;7.018;2024-03-07T07:33:50;5.50;99.90
13998;DHT22;7074;51.508;7.018;2024-03-07T07:36:17;5.60;99.90
13998;DHT22;7074;51.508;7.018;2024-03-07T07:38:45;5.60;99.90
13998;DHT22;7074;51.508;7.018;2024-03-07T07:41:12;5.60;99.90
13998;DHT22;7074;51.508;7.018;2024-03-07T07:43:42;5.60;99.90
13998;DHT22;7074;51.508;7.018;2024-03-07T07:46:09;5.70;99.90
13998;DHT22;7074;51.508;7.018;2024-03-07T07:48:36;5.80;99.90
13998;DHT22;7074;51.508;7.018;2024-03-07T07:51:04;5.90;99.90
13998;DHT22;7074;51.508;7.018;2024-03-07T07:53:31;5.90;99.90
13998;DHT22;7074;51.508;7.018;2024-03-07T07:55:58;6.00;99.90
13998;DHT22;7074;51.508;7.018;2024-03-07T07:58:26;6.20;99.90
13998;DHT22;7074;51.508;7.018;2024-03-07T08:00:55;6.20;99.90
13998;DHT22;7074;51.508;7.018;2024-03-07T08:03:22;6.30;99.90
13998;DHT22;7074;51.508;7.018;2024-03-07T08:05:49;6.30;99.90
13998;DHT22;7074;51.508;7.018;2024-03-07T08:08:16;6.20;99.90
13998;DHT22;7074;51.508;7.018;2024-03-07T08:10:44;6.40;99.90
13998;DHT22;7074;51.508;7.018;2024-03-07T08:13:11;6.50;99.90
13998;DHT22;7074;51.508;7.018;2024-03-07T08:15:39;6.50;99.90
13998;DHT22;7074;51.508;7.018;2024-03-07T08:18:09;6.60;99.90
13998;DHT22;7074;51.508;7.018;2024-03-07T08:20:36;6.60;99.90
13998;DHT22;7074;51.508;7.018;2024-03-07T08:23:04;6.70;99.90
13998;DHT22;7074;51.508;7.018;2024-03-07T08:25:32;6.80;99.90
13998;DHT22;7074;51.508;7.018;2024-03-07T08:28:00;6.80;99.90
13998;DHT22;7074;51.508;7.018;2024-03-07T08:30:27;7.00;99.90
13998;DHT22;7074;51.508;7.018;2024-03-07T08:32:56;7.00;99.90
13998;DHT22;7074;51.508;7.018;2024-03-07T08:35:25;7.10;99.90
13998;DHT22;7074;51.508;7.018;2024-03-07T08:37:53;7.20;99.90
13998;DHT22;7074;51.508;7.018;2024-03-07T08:40:23;7.50;99.90
13998;DHT22;7074;51.508;7.018;2024-03-07T08:42:51;7.50;99.90
13998;DHT22;7074;51.508;7.018;2024-03-07T08:45:20;7.50;99.90
13998;DHT22;7074;51.508;7.018;2024-03-07T08:47:48;7.50;99.90
13998;DHT22;7074;51.508;7.018;2024-03-07T08:50:16;7.60;99.90
13998;DHT22;7074;51.508;7.018;2024-03-07T08:52:53;7.70;99.90
13998;DHT22;7074;51.508;7.018;2024-03-07T08:55:22;7.80;99.90
13998;DHT22;7074;51.508;7.018;2024-03-07T08:57:51;7.80;99.90
13998;DHT22;7074;51.508;7.018;2024-03-07T09:00:19;7.90;99.90
13998;DHT22;7074;51.508;7.018;2024-03-07T09:02:51;7.80;99.90
13998;DHT22;7074;51.508;7.018;2024-03-07T09:05:19;7.90;99.90
13998;DHT22;7074;51.508;7.018;2024-03-07T09:07:52;7.90;99.90
13998;DHT22;7074;51.508;7.018;2024-03-07T09:10:54;7.80;99.90
13998;DHT22;7074;51.508;7.018;2024-03-07T09:13:28;7.70;99.90
13998;DHT22;7074;51.508;7.018;2024-03-07T09:15:58;7.80;99.90
13998;DHT22;7074;51.508;7.018;2024-03-07T09:19:16;7.80;99.90
13998;DHT22;7074;51.508;7.018;2024-03-07T09:22:01;7.80;99.90
13998;DHT22;7074;51.508;7.018;2024-03-07T09:24:54;7.90;99.90
13998;DHT22;7074;51.508;7.018;2024-03-07T09:27:28;8.00;99.90
13998;DHT22;7074;51.508;7.018;2024-03-07T09:29:59;8.00;99.90
13998;DHT22;7074;51.508;7.018;2024-03-07T09:32:29;8.10;99.90
13998;DHT22;7074;51.508;7.018;2024-03-07T09:34:59;8.00;99.90
13998;DHT22;7074;51.508;7.018;2024-03-07T09:37:27;7.80;99.90
13998;DHT22;7074;51.508;7.018;2024-03-07T09:39:57;7.90;99.90
13998;DHT22;7074;51.508;7.018;2024-03-07T09:42:26;8.10;99.90
13998;DHT22;7074;51.508;7.018;2024-03-07T09:45:01;7.70;99.90
13998;DHT22;7074;51.508;7.018;2024-03-07T09:47:36;8.00;99.90
13998;DHT22;7074;51.508;7.018;2024-03-07T09:50:16;8.00;99.90
13998;DHT22;7074;51.508;7.018;2024-03-07T09:52:55;8.30;99.90
13998;DHT22;7074;51.508;7.018;2024-03-07T09:55:29;8.30;99.90
13998;DHT22;7074;51.508;7.018;2024-03-07T09:58:05;8.50;99.90
13998;DHT22;7074;51.508;7.018;2024-03-07T10:00:36;8.60;99.90
13998;DHT22;7074;51.508;7.018;2024-03-07T10:03:11;8.70;99.90
13998;DHT22;7074;51.508;7.018;2024-03-07T10:06:03;8.80;99.90
13998;DHT22;7074;51.508;7.018;2024-03-07T10:08:47;8.90;99.90
13998;DHT22;7074;51.508;7.018;2024-03-07T10:11:20;8.90;99.90
13998;DHT22;7074;51.508;7.018;2024-03-07T10:13:50;9.00;99.90
13998;DHT22;7074;51.508;7.018;2024-03-07T10:16:18;9.20;99.90
13998;DHT22;7074;51.508;7.018;2024-03-07T10:18:48;9.30;99.90
13998;DHT22;7074;51.508;7.018;2024-03-07T10:21:19;9.30;99.90
13998;DHT22;7074;51.508;7.018;2024-03-07T10:23:55;9.40;99.90
13998;DHT22;7074;51.508;7.018;2024-03-07T10:26:34;9.40;99.90
13998;DHT22;7074;51.508;7.018;2024-03-07T10:29:07;9.40;99.90
13998;DHT22;7074;51.508;7.018;2024-03-07T10:31:46;9.50;99.90
13998;DHT22;7074;51.508;7.018;2024-03-07T10:34:13;9.60;99.90
13998;DHT22;7074;51.508;7.018;2024-03-07T10:36:47;9.50;99.90
13998;DHT22;7074;51.508;7.018;2024-03-07T10:39:15;9.30;99.90
13998;DHT22;7074;51.508;7.018;2024-03-07T10:41:51;9.20;99.90
13998;DHT22;7074;51.508;7.018;2024-03-07T10:44:31;9.40;99.90
13998;DHT22;7074;51.508;7.018;2024-03-07T10:52:34;9.60;99.90
13998;DHT22;7074;51.508;7.018;2024-03-07T10:53:29;9.80;99.90
13998;DHT22;7074;51.508;7.018;2024-03-07T10:56:47;9.60;99.90
13998;DHT22;7074;51.508;7.018;2024-03-07T10:59:25;9.80;99.90
13998;DHT22;7074;51.508;7.018;2024-03-07T11:02:03;10.00;99.90
13998;DHT22;7074;51.508;7.018;2024-03-07T11:04:40;9.90;99.90
13998;DHT22;7074;51.508;7.018;2024-03-07T11:07:15;9.70;99.90
13998;DHT22;7074;51.508;7.018;2024-03-07T11:09:55;10.00;99.90
13998;DHT22;7074;51.508;7.018;2024-03-07T11:12:28;10.10;99.90
13998;DHT22;7074;51.508;7.018;2024-03-07T11:15:09;10.10;99.90
13998;DHT22;7074;51.508;7.018;2024-03-07T11:17:45;10.10;99.90
13998;DHT22;7074;51.508;7.018;2024-03-07T11:20:37;10.30;99.90
13998;DHT22;7074;51.508;7.018;2024-03-07T11:23:26;10.50;99.90
13998;DHT22;7074;51.508;7.018;2024-03-07T11:26:17;10.70;99.90
13998;DHT22;7074;51.508;7.018;2024-03-07T11:31:55;10.70;99.90
13998;DHT22;7074;51.508;7.018;2024-03-07T11:34:32;10.90;99.90
13998;DHT22;7074;51.508;7.018;2024-03-07T11:37:01;10.90;99.90
13998;DHT22;7074;51.508;7.018;2024-03-07T11:39:49;11.00;99.90
13998;DHT22;7074;51.508;7.018;2024-03-07T11:42:20;10.90;99.90
13998;DHT22;7074;51.508;7.018;2024-03-07T11:44:51;10.20;99.90
13998;DHT22;7074;51.508;7.018;2024-03-07T11:47:39;10.40;99.90
13998;DHT22;7074;51.508;7.018;2024-03-07T11:50:16;10.40;99.90
13998;DHT22;7074;51.508;7.018;2024-03-07T11:52:47;10.50;99.90
13998;DHT22;7074;51.508;7.018;2024-03-07T11:55:27;10.40;99.90
13998;DHT22;7074;51.508;7.018;2024-03-07T11:58:55;10.60;99.90
13998;DHT22;7074;51.508;7.018;2024-03-07T12:02:21;10.80;99.90
13998;DHT22;7074;51.508;7.018;2024-03-07T12:05:08;10.70;99.90
13998;DHT22;7074;51.508;7.018;2024-03-07T12:08:22;10.80;99.90
13998;DHT22;7074;51.508;7.018;2024-03-07T12:10:53;11.20;99.90
13998;DHT22;7074;51.508;7.018;2024-03-07T12:13:31;11.50;99.90
13998;DHT22;7074;51.508;7.018;2024-03-07T12:16:34;11.60;99.90
13998;DHT22;7074;51.508;7.018;2024-03-07T12:19:33;11.70;99.90
13998;DHT22;7074;51.508;7.018;2024-03-07T12:23:11;11.70;99.90
13998;DHT22;7074;51.508;7.018;2024-03-07T12:25:22;11.70;99.90
13998;DHT22;7074;51.508;7.018;2024-03-07T12:28:12;11.60;99.90
13998;DHT22;7074;51.508;7.018;2024-03-07T12:31:31;11.60;99.90
13998;DHT22;7074;51.508;7.018;2024-03-07T12:33:57;11.80;99.90
13998;DHT22;7074;51.508;7.018;2024-03-07T12:36:38;11.80;99.90
13998;DHT22;7074;51.508;7.018;2024-03-07T12:39:24;12.00;99.90
13998;DHT22;7074;51.508;7.018;2024-03-07T12:41:56;11.70;99.90
13998;DHT22;7074;51.508;7.018;2024-03-07T12:45:06;11.70;99.90
13998;DHT22;7074;51.508;7.018;2024-03-07T12:48:10;11.30;99.90
13998;DHT22;7074;51.508;7.018;2024-03-07T12:50:51;11.00;99.90
13998;DHT22;7074;51.508;7.018;2024-03-07T12:53:23;11.30;99.90
13998;DHT22;7074;51.508;7.018;2024-03-07T12:55:55;11.50;99.90
13998;DHT22;7074;51.508;7.018;2024-03-07T12:58:23;11.60;99.90
13998;DHT22;7074;51.508;7.018;2024-03-07T13:00:56;11.50;99.90
13998;DHT22;7074;51.508;7.018;2024-03-07T13:03:48;11.50;99.90
13998;DHT22;7074;51.508;7.018;2024-03-07T13:06:37;11.40;99.90
13998;DHT22;7074;51.508;7.018;2024-03-07T13:12:42;11.20;99.90
13998;DHT22;7074;51.508;7.018;2024-03-07T13:16:20;11.20;99.90
13998;DHT22;7074;51.508;7.018;2024-03-07T13:19:28;11.30;99.90
13998;DHT22;7074;51.508;7.018;2024-03-07T13:22:53;11.30;99.90
13998;DHT22;7074;51.508;7.018;2024-03-07T13:25:27;11.10;99.90
13998;DHT22;7074;51.508;7.018;2024-03-07T13:28:04;11.30;99.90
13998;DHT22;7074;51.508;7.018;2024-03-07T13:30:36;11.20;99.90
13998;DHT22;7074;51.508;7.018;2024-03-07T13:33:04;11.20;99.90
13998;DHT22;7074;51.508;7.018;2024-03-07T13:35:31;11.10;99.90
13998;DHT22;7074;51.508;7.018;2024-03-07T13:38:01;11.20;99.90
13998;DHT22;7074;51.508;7.018;2024-03-07T13:40:46;11.30;99.90
13998;DHT22;7074;51.508;7.018;2024-03-07T13:43:22;11.20;99.90
13998;DHT22;7074;51.508;7.018;2024-03-07T13:45:52;11.20;99.90
13998;DHT22;7074;51.508;7.018;2024-03-07T13:48:25;11.20;99.90
13998;DHT22;7074;51.508;7.018;2024-03-07T13:50:52;11.20;99.90
13998;DHT22;7074;51.508;7.018;2024-03-07T13:53:49;11.20;99.90
13998;DHT22;7074;51.508;7.018;2024-03-07T14:03:58;11.20;99.90
13998;DHT22;7074;51.508;7.018;2024-03-07T14:07:57;11.20;99.90
13998;DHT22;7074;51.508;7.018;2024-03-07T14:17:59;11.10;99.90
13998;DHT22;7074;51.508;7.018;2024-03-07T14:20:53;11.20;99.90
13998;DHT22;7074;51.508;7.018;2024-03-07T14:23:38;11.30;99.90
13998;DHT22;7074;51.508;7.018;2024-03-07T14:26:46;11.20;99.90
13998;DHT22;7074;51.508;7.018;2024-03-07T14:29:38;11.20;99.90
13998;DHT22;7074;51.508;7.018;2024-03-07T14:32:13;11.20;99.90
13998;DHT22;7074;51.508;7.018;2024-03-07T14:35:09;11.30;99.90
13998;DHT22;7074;51.508;7.018;2024-03-07T14:37:54;11.40;99.90
13998;DHT22;7074;51.508;7.018;2024-03-07T14:40:25;11.40;99.90
13998;DHT22;7074;51.508;7.018;2024-03-07T14:43:11;11.30;99.70
13998;DHT22;7074;51.508;7.018;2024-03-07T14:45:40;11.30;99.50
13998;DHT22;7074;51.508;7.018;2024-03-07T14:48:10;11.30;99.60
13998;DHT22;7074;51.508;7.018;2024-03-07T14:51:31;11.20;99.20
13998;DHT22;7074;51.508;7.018;2024-03-07T14:53:55;11.10;99.20
13998;DHT22;7074;51.508;7.018;2024-03-07T14:56:47;11.10;98.20
13998;DHT22;7074;51.508;7.018;2024-03-07T14:59:36;11.20;97.70
13998;DHT22;7074;51.508;7.018;2024-03-07T15:02:08;11.30;97.50
13998;DHT22;7074;51.508;7.018;2024-03-07T15:04:37;11.40;97.30
13998;DHT22;7074;51.508;7.018;2024-03-07T15:07:10;11.60;97.00
13998;DHT22;7074;51.508;7.018;2024-03-07T15:09:42;11.50;95.30
13998;DHT22;7074;51.508;7.018;2024-03-07T15:12:21;11.50;94.80
13998;DHT22;7074;51.508;7.018;2024-03-07T15:15:14;11.40;94.10
13998;DHT22;7074;51.508;7.018;2024-03-07T15:17:56;11.40;94.40
13998;DHT22;7074;51.508;7.018;2024-03-07T15:20:54;11.30;94.00
13998;DHT22;7074;51.508;7.018;2024-03-07T15:24:07;11.10;94.40
13998;DHT22;7074;51.508;7.018;2024-03-07T15:27:01;11.10;94.60
13998;DHT22;7074;51.508;7.018;2024-03-07T15:37:51;11.00;96.90
13998;DHT22;7074;51.508;7.018;2024-03-07T15:40:41;11.00;97.30
13998;DHT22;7074;51.508;7.018;2024-03-07T15:43:44;10.90;97.80
13998;DHT22;7074;51.508;7.018;2024-03-07T15:46:23;10.80;98.40
13998;DHT22;7074;51.508;7.018;2024-03-07T15:49:39;10.90;98.70
13998;DHT22;7074;51.508;7.018;2024-03-07T15:56:15;10.90;99.60
13998;DHT22;7074;51.508;7.018;2024-03-07T15:59:13;10.90;99.90
13998;DHT22;7074;51.508;7.018;2024-03-07T16:02:44;10.90;99.90
13998;DHT22;7074;51.508;7.018;2024-03-07T16:08:38;10.90;99.90
13998;DHT22;7074;51.508;7.018;2024-03-07T16:11:56;10.90;99.90
13998;DHT22;7074;51.508;7.018;2024-03-07T16:14:55;10.90;99.90
13998;DHT22;7074;51.508;7.018;2024-03-07T16:17:27;10.80;99.90
13998;DHT22;7074;51.508;7.018;2024-03-07T16:20:17;10.60;99.90
13998;DHT22;7074;51.508;7.018;2024-03-07T16:23:06;10.50;99.90
13998;DHT22;7074;51.508;7.018;2024-03-07T16:26:04;10.50;99.90
13998;DHT22;7074;51.508;7.018;2024-03-07T16:35:50;10.70;99.90
13998;DHT22;7074;51.508;7.018;2024-03-07T16:39:53;10.60;99.90
13998;DHT22;7074;51.508;7.018;2024-03-07T16:42:44;10.60;99.90
13998;DHT22;7074;51.508;7.018;2024-03-07T16:45:34;10.50;99.90
13998;DHT22;7074;51.508;7.018;2024-03-07T16:48:01;10.50;99.90
13998;DHT22;7074;51.508;7.018;2024-03-07T16:50:35;10.60;99.90
13998;DHT22;7074;51.508;7.018;2024-03-07T16:53:08;10.50;99.90
13998;DHT22;7074;51.508;7.018;2024-03-07T16:55:38;10.50;99.90
13998;DHT22;7074;51.508;7.018;2024-03-07T16:58:11;10.50;99.90
13998;DHT22;7074;51.508;7.018;2024-03-07T17:00:46;10.50;99.90
13998;DHT22;7074;51.508;7.018;2024-03-07T17:03:14;10.50;99.90
13998;DHT22;7074;51.508;7.018;2024-03-07T17:05:46;10.50;99.90
13998;DHT22;7074;51.508;7.018;2024-03-07T17:08:15;10.40;99.90
13998;DHT22;7074;51.508;7.018;2024-03-07T17:10:49;10.30;99.90
13998;DHT22;7074;51.508;7.018;2024-03-07T17:13:19;10.30;99.90
13998;DHT22;7074;51.508;7.018;2024-03-07T17:15:58;10.30;99.90
13998;DHT22;7074;51.508;7.018;2024-03-07T17:18:31;10.30;99.90
13998;DHT22;7074;51.508;7.018;2024-03-07T17:21:04;10.20;99.90
13998;DHT22;7074;51.508;7.018;2024-03-07T17:23:58;10.30;99.90
13998;DHT22;7074;51.508;7.018;2024-03-07T17:26:33;10.20;99.90
13998;DHT22;7074;51.508;7.018;2024-03-07T17:29:00;10.30;99.90
13998;DHT22;7074;51.508;7.018;2024-03-07T17:31:38;10.30;99.90
13998;DHT22;7074;51.508;7.018;2024-03-07T17:34:15;10.30;99.90